Time;durP1;ratioP1;P1;durP2;ratioP2;P2;SDS_P1;SDS_P2;PMS_P1;PMS_P2;Temp;Humidity;BMP_temperature;BMP_pressure;BME280_temperature;BME280_humidity;BME280_pressure;Samples;Min_cycle;Max_cycle;Signal;HPM_P1;HPM_P2
2023/06/12 00:03:47;;;;;;;6.40;5.40;;;;;;;11.93;94.99;100349.99;218589;1256;139692;-70
2023/06/12 00:08:52;;;;;;;11.70;6.20;;;;;;;11.84;95.11;100346.84;218461;1260;139686;-70
2023/06/12 00:13:55;;;;;;;6.40;5.80;;;;;;;11.77;95.40;100351.90;218578;1259;141839;-68
2023/06/12 00:18:59;;;;;;;5.30;4.90;;;;;;;11.72;95.41;100351.08;219768;1258;139743;-70
2023/06/12 00:24:04;;;;;;;6.00;5.40;;;;;;;11.66;95.53;100344.55;219260;1259;139491;-70
2023/06/12 00:29:08;;;;;;;8.30;6.20;;;;;;;11.55;95.21;100339.54;218298;1259;141286;-75
2023/06/12 00:34:12;;;;;;;6.10;5.50;;;;;;;11.46;95.26;100337.20;219119;1260;140014;-73
2023/06/12 00:39:16;;;;;;;9.50;6.90;;;;;;;11.40;95.18;100336.27;218182;1257;139833;-76
2023/06/12 00:44:19;;;;;;;9.20;7.40;;;;;;;11.34;95.55;100339.57;219110;1255;139871;-72
2023/06/12 00:49:23;;;;;;;7.30;6.40;;;;;;;11.23;95.24;100340.73;219441;1256;140596;-72
2023/06/12 00:54:26;;;;;;;6.80;6.10;;;;;;;11.11;95.16;100337.92;218034;1256;139430;-73
2023/06/12 00:59:28;;;;;;;6.70;6.00;;;;;;;11.03;95.36;100338.77;218679;1256;140579;-74
2023/06/12 01:04:33;;;;;;;13.00;6.50;;;;;;;10.92;95.34;100340.52;218216;1260;139856;-71
2023/06/12 01:10:00;;;;;;;6.40;5.90;;;;;;;10.79;95.35;100337.41;217979;1256;139778;-72
2023/06/12 01:15:04;;;;;;;11.40;7.50;;;;;;;10.68;95.59;100337.78;218750;1258;140723;-71
2023/06/12 01:20:13;;;;;;;9.80;8.80;;;;;;;10.62;96.06;100336.20;218117;1257;140893;-69
2023/06/12 01:25:36;;;;;;;11.20;10.00;;;;;;;10.57;96.28;100335.96;218043;1259;139597;-73
2023/06/12 01:30:54;;;;;;;12.00;10.80;;;;;;;10.53;96.09;100339.12;218868;1256;140990;-73
2023/06/12 01:35:59;;;;;;;;;;;;;;;10.46;96.35;100340.77;218134;1259;140760;-73
2023/06/12 01:41:05;;;;;;;9.60;8.70;;;;;;;10.42;97.20;100340.88;218845;1254;127412;-72
2023/06/12 01:46:09;;;;;;;11.20;9.60;;;;;;;10.37;96.44;100344.71;218078;1259;139217;-73
2023/06/12 01:51:13;;;;;;;10.60;9.60;;;;;;;10.26;96.73;100348.62;218882;1259;139537;-71
2023/06/12 01:56:17;;;;;;;9.90;8.80;;;;;;;10.21;96.75;100344.83;218849;1259;140192;-74
2023/06/12 02:01:21;;;;;;;16.70;10.20;;;;;;;10.15;96.90;100349.73;218740;1254;139813;-76
2023/06/12 02:06:25;;;;;;;8.60;7.70;;;;;;;10.15;97.94;100349.73;219806;1254;141322;-76
2023/06/12 02:11:29;;;;;;;9.80;8.30;;;;;;;10.05;96.80;100352.02;220556;1259;141027;-72
2023/06/12 02:16:32;;;;;;;9.20;7.70;;;;;;;9.94;96.75;100352.55;218834;1254;139483;-71
2023/06/12 02:21:35;;;;;;;7.40;6.60;;;;;;;9.90;97.34;100356.52;218082;1259;139575;-70
2023/06/12 02:26:38;;;;;;;7.50;6.70;;;;;;;9.88;97.36;100354.72;217970;1259;139420;-70
2023/06/12 02:31:42;;;;;;;8.50;6.90;;;;;;;9.74;96.58;100356.63;218424;1260;139617;-69
2023/06/12 02:36:46;;;;;;;8.50;7.30;;;;;;;9.63;96.82;100360.45;219190;1256;140055;-71
2023/06/12 02:41:50;;;;;;;7.30;6.50;;;;;;;9.55;96.71;100358.03;219157;1258;139742;-70
2023/06/12 02:46:54;;;;;;;7.20;6.00;;;;;;;9.52;97.41;100363.48;218040;1260;139583;-71
2023/06/12 02:51:57;;;;;;;7.50;6.40;;;;;;;9.52;97.57;100364.88;219073;1255;140335;-79
2023/06/12 02:57:00;;;;;;;8.20;7.40;;;;;;;9.48;97.20;100362.77;219693;1259;140292;-81
2023/06/12 03:02:03;;;;;;;8.00;6.80;;;;;;;9.45;97.54;100366.73;219643;1254;139250;-77
2023/06/12 03:07:13;;;;;;;7.40;6.30;;;;;;;9.49;97.69;100363.92;218042;1257;139270;-73
2023/06/12 03:12:20;;;;;;;7.60;6.90;;;;;;;9.51;98.06;100365.00;218339;1256;139404;-74
2023/06/12 03:17:23;;;;;;;7.70;6.70;;;;;;;9.61;98.66;100366.92;218646;1254;142219;-71
2023/06/12 03:22:26;;;;;;;21.30;8.10;;;;;;;9.73;98.78;100369.49;217916;1259;163067;-70
2023/06/12 03:27:31;;;;;;;7.20;6.50;;;;;;;9.88;99.25;100367.50;218132;1254;139884;-71
2023/06/12 03:32:34;;;;;;;11.50;10.00;;;;;;;10.00;99.62;100366.45;218133;1258;140270;-70
2023/06/12 03:37:38;;;;;;;9.00;8.10;;;;;;;10.16;99.88;100374.20;219193;1254;139683;-71
2023/06/12 03:42:41;;;;;;;9.70;8.90;;;;;;;10.46;100.00;100375.67;217922;1260;140024;-72
2023/06/12 03:47:44;;;;;;;11.10;7.90;;;;;;;10.80;99.99;100372.92;219113;1257;140832;-74
2023/06/12 03:52:47;;;;;;;12.00;9.50;;;;;;;11.01;99.96;100372.59;220207;1254;140774;-71
2023/06/12 03:57:50;;;;;;;13.00;9.50;;;;;;;11.39;99.96;100376.39;218310;1255;139774;-71
2023/06/12 04:02:54;;;;;;;9.10;8.10;;;;;;;11.67;100.00;100378.81;218266;1254;140646;-69
2023/06/12 04:07:57;;;;;;;11.10;10.00;;;;;;;11.86;100.00;100381.23;219940;1254;140979;-70
2023/06/12 04:13:00;;;;;;;15.10;10.20;;;;;;;12.04;100.00;100383.20;220645;1254;140386;-72
2023/06/12 04:18:05;;;;;;;11.50;8.60;;;;;;;12.31;100.00;100381.19;220275;1254;142322;-73
2023/06/12 04:23:11;;;;;;;39.90;9.40;;;;;;;13.14;100.00;100375.38;218626;1255;140561;-72
2023/06/12 04:28:13;;;;;;;12.30;8.10;;;;;;;13.62;100.00;100377.60;219037;1257;140540;-70
2023/06/12 04:33:17;;;;;;;9.20;7.40;;;;;;;14.44;99.83;100375.45;218432;1257;139882;-72
2023/06/12 04:38:23;;;;;;;6.80;6.10;;;;;;;16.60;97.02;100375.36;219601;1256;140001;-76
2023/06/12 04:43:26;;;;;;;7.90;7.20;;;;;;;18.88;94.58;100372.48;218701;1257;140057;-76
2023/06/12 04:48:31;;;;;;;7.70;6.90;;;;;;;20.23;92.76;100378.87;218486;1260;140529;-74
2023/06/12 04:53:34;;;;;;;7.40;6.70;;;;;;;21.24;90.02;100382.43;218329;1256;139729;-76
2023/06/12 04:58:41;;;;;;;6.40;5.90;;;;;;;21.42;88.55;100388.19;218260;1260;141773;-74
2023/06/12 05:03:45;;;;;;;11.00;5.90;;;;;;;22.15;86.79;100388.46;218478;1259;139824;-72
2023/06/12 05:08:48;;;;;;;8.30;5.40;;;;;;;23.41;85.19;100387.26;218250;1260;140831;-72
2023/06/12 05:13:52;;;;;;;14.30;4.70;;;;;;;26.87;81.78;100387.52;218205;1260;140331;-72
2023/06/12 05:18:55;;;;;;;6.80;4.20;;;;;;;30.25;77.89;100393.31;217936;1258;141894;-70
2023/06/12 05:23:57;;;;;;;5.60;5.10;;;;;;;33.02;74.22;100394.38;218599;1255;139595;-74
2023/06/12 05:29:01;;;;;;;5.10;3.40;;;;;;;35.09;69.27;100399.14;217883;1254;139784;-72
2023/06/12 05:34:04;;;;;;;3.30;2.80;;;;;;;36.72;66.35;100395.61;218063;1254;139795;-72
2023/06/12 05:39:08;;;;;;;5.00;2.90;;;;;;;38.25;63.99;100399.05;219503;1254;140319;-75
2023/06/12 05:44:17;;;;;;;2.80;2.60;;;;;;;39.72;62.06;100398.23;218310;1254;139904;-77
2023/06/12 05:49:20;;;;;;;3.90;3.30;;;;;;;40.84;60.04;100394.84;217941;1255;140223;-76
2023/06/12 05:54:26;;;;;;;2.40;2.20;;;;;;;41.69;57.60;100391.74;217023;1254;1363015;-73
2023/06/12 05:59:34;;;;;;;1.80;1.70;;;;;;;42.19;56.45;100394.77;218178;1258;139502;-72
2023/06/12 06:04:36;;;;;;;7.20;2.40;;;;;;;42.79;56.20;100396.16;219600;1254;139778;-75
2023/06/12 06:09:43;;;;;;;6.20;2.50;;;;;;;43.45;55.82;100397.55;217756;1257;139002;-74
2023/06/12 06:14:47;;;;;;;2.50;2.10;;;;;;;43.64;54.99;100402.44;218117;1254;139270;-77
2023/06/12 06:19:51;;;;;;;4.40;1.70;;;;;;;43.52;54.00;100407.48;219453;1254;139720;-77
2023/06/12 06:24:55;;;;;;;3.00;2.00;;;;;;;43.16;53.99;100406.28;220065;1254;139369;-77
2023/06/12 06:29:58;;;;;;;4.00;1.80;;;;;;;42.93;54.39;100408.39;218509;1254;140614;-75
2023/06/12 06:35:02;;;;;;;5.00;1.90;;;;;;;42.80;54.30;100406.88;218325;1259;140323;-75
2023/06/12 06:40:08;;;;;;;1.70;1.60;;;;;;;42.03;52.45;100404.58;217880;1256;139211;-74
2023/06/12 06:45:12;;;;;;;4.40;1.30;;;;;;;41.50;54.03;100410.18;217913;1259;141299;-74
2023/06/12 06:50:16;;;;;;;2.20;1.10;;;;;;;41.05;52.95;100408.41;217954;1256;138883;-72
2023/06/12 06:55:22;;;;;;;1.50;1.10;;;;;;;40.73;52.34;100409.58;218746;1254;139641;-73
2023/06/12 07:00:28;;;;;;;10.20;2.00;;;;;;;40.49;50.06;100409.70;217810;1258;139125;-71
2023/06/12 07:05:32;;;;;;;1.50;1.10;;;;;;;40.96;46.10;100408.23;217935;1255;152029;-71
2023/06/12 07:10:37;;;;;;;4.90;1.20;;;;;;;41.13;42.04;100409.96;217927;1259;140705;-74
2023/06/12 07:15:42;;;;;;;4.10;1.60;;;;;;;40.96;38.78;100407.05;217483;1254;139342;-74
2023/06/12 07:20:46;;;;;;;1.60;1.00;;;;;;;40.29;35.25;100405.82;217612;1256;140987;-70
2023/06/12 07:25:50;;;;;;;6.30;1.40;;;;;;;39.24;33.43;100407.98;217897;1256;139844;-72
2023/06/12 07:30:53;;;;;;;1.70;1.40;;;;;;;38.10;32.03;100401.11;218949;1254;139554;-70
2023/06/12 07:35:56;;;;;;;2.00;0.70;;;;;;;36.98;30.97;100399.55;218547;1254;138936;-68
2023/06/12 07:41:00;;;;;;;2.10;1.30;;;;;;;36.18;30.25;100395.19;218413;1256;138982;-67
2023/06/12 07:46:04;;;;;;;1.80;1.70;;;;;;;35.40;29.74;100394.71;217669;1256;140826;-68
2023/06/12 07:51:08;;;;;;;2.10;1.50;;;;;;;34.50;28.90;100388.48;218691;1256;139567;-68
2023/06/12 07:56:11;;;;;;;2.20;1.40;;;;;;;33.55;28.23;100387.47;218053;1256;139229;-69
2023/06/12 08:01:16;;;;;;;1.40;1.30;;;;;;;32.81;28.02;100379.11;217920;1259;139320;-69
2023/06/12 08:06:20;;;;;;;4.70;1.30;;;;;;;32.20;27.94;100377.98;220645;1255;138914;-71
2023/06/12 08:11:23;;;;;;;5.00;1.40;;;;;;;31.49;26.77;100377.19;218477;1256;139772;-70
2023/06/12 08:16:26;;;;;;;4.30;2.00;;;;;;;30.60;26.58;100374.91;220109;1255;139659;-69
2023/06/12 08:21:28;;;;;;;2.10;1.90;;;;;;;29.97;26.43;100372.84;218780;1254;138578;-69
2023/06/12 08:26:30;;;;;;;1.60;1.50;;;;;;;29.58;26.51;100366.98;218718;1255;140324;-66
2023/06/12 08:31:34;;;;;;;2.90;1.70;;;;;;;29.04;26.44;100357.27;218775;1255;139428;-66
2023/06/12 08:36:38;;;;;;;8.50;2.00;;;;;;;28.99;27.08;100352.28;219488;1255;139078;-67
2023/06/12 08:41:52;;;;;;;8.20;2.20;;;;;;;28.95;27.04;100352.91;218308;1255;138934;-68
2023/06/12 08:46:59;;;;;;;6.90;1.80;;;;;;;28.90;27.13;100357.75;217841;1256;138827;-65
2023/06/12 08:52:03;;;;;;;4.40;2.20;;;;;;;28.95;26.87;100359.57;218749;1254;138958;-69
2023/06/12 08:57:08;;;;;;;3.80;1.50;;;;;;;28.70;26.50;100356.61;218255;1254;139812;-65
2023/06/12 09:02:13;;;;;;;1.50;1.40;;;;;;;28.64;26.79;100350.13;218108;1257;139043;-65
2023/06/12 09:07:20;;;;;;;9.80;2.30;;;;;;;28.35;26.94;100343.84;218252;1259;140119;-66
2023/06/12 09:12:24;;;;;;;3.40;1.60;;;;;;;28.29;26.92;100345.88;218337;1256;139974;-69
2023/06/12 09:17:33;;;;;;;4.90;1.70;;;;;;;28.23;26.86;100339.48;218475;1255;138639;-74
2023/06/12 09:22:39;;;;;;;2.10;2.00;;;;;;;28.09;26.41;100338.79;218391;1254;141803;-70
2023/06/12 09:27:46;;;;;;;3.00;1.50;;;;;;;27.75;26.70;100336.93;218846;1256;141236;-71
2023/06/12 09:32:52;;;;;;;1.80;1.70;;;;;;;27.55;26.63;100335.14;218797;1255;140054;-72
2023/06/12 09:38:00;;;;;;;2.80;1.80;;;;;;;27.31;26.25;100332.98;217985;1259;139601;-72
2023/06/12 09:43:04;;;;;;;1.90;1.80;;;;;;;27.15;26.18;100331.17;218477;1254;139951;-70
2023/06/12 09:48:09;;;;;;;9.20;1.90;;;;;;;26.90;26.24;100325.30;218200;1256;139206;-67
2023/06/12 09:53:16;;;;;;;5.70;2.30;;;;;;;26.74;26.34;100326.68;219120;1256;139511;-69
2023/06/12 09:58:20;;;;;;;4.00;2.40;;;;;;;26.58;26.31;100323.34;219213;1254;140285;-70
2023/06/12 10:03:26;;;;;;;4.50;2.00;;;;;;;26.52;26.33;100318.67;220086;1255;139014;-71
2023/06/12 10:08:30;;;;;;;;;;;;;;;26.48;26.32;100315.20;219035;1259;141097;-72
2023/06/12 10:13:35;;;;;;;3.00;1.70;;;;;;;26.36;26.47;100306.10;219119;1254;126260;-73
2023/06/12 10:18:40;;;;;;;4.80;2.00;;;;;;;26.40;26.77;100299.73;220133;1255;139568;-71
2023/06/12 10:23:44;;;;;;;3.20;1.90;;;;;;;26.57;26.93;100302.92;217918;1256;140927;-70
2023/06/12 10:28:55;;;;;;;2.70;2.50;;;;;;;26.69;26.78;100295.46;218927;1255;138727;-73
2023/06/12 10:34:05;;;;;;;4.10;2.20;;;;;;;26.77;26.94;100284.94;218705;1254;141007;-73
2023/06/12 10:39:23;;;;;;;5.10;2.10;;;;;;;26.70;26.76;100278.63;218001;1256;139560;-72
2023/06/12 10:44:44;;;;;;;4.70;2.20;;;;;;;26.85;26.91;100272.11;218601;1256;138687;-71
2023/06/12 10:50:02;;;;;;;4.10;1.70;;;;;;;26.66;26.56;100271.09;218193;1256;140027;-71
2023/06/12 10:55:20;;;;;;;5.00;1.60;;;;;;;26.41;26.60;100275.22;217866;1259;138851;-72
2023/06/12 11:00:31;;;;;;;9.70;2.60;;;;;;;26.19;26.57;100269.77;217912;1259;140121;-77
2023/06/12 11:05:35;;;;;;;2.10;1.70;;;;;;;26.02;26.44;100267.00;218449;1254;138713;-75
2023/06/12 11:10:39;;;;;;;12.80;3.10;;;;;;;25.97;26.70;100265.00;217867;1259;138813;-74
2023/06/12 11:15:44;;;;;;;5.40;2.20;;;;;;;26.06;26.83;100249.38;218577;1255;141604;-69
2023/06/12 11:20:55;;;;;;;;;;;;;;;26.09;27.04;100249.89;217885;1259;139702;-75
2023/06/12 11:26:00;;;;;;;3.80;2.60;;;;;;;25.95;27.14;100243.06;220020;1256;126580;-76
2023/06/12 11:31:12;;;;;;;3.80;2.70;;;;;;;26.06;27.28;100233.76;218928;1256;139770;-75
2023/06/12 11:36:32;;;;;;;1.90;1.80;;;;;;;26.18;26.98;100234.50;218215;1256;139240;-83
2023/06/12 11:41:50;;;;;;;1.30;1.20;;;;;;;26.22;26.77;100226.08;219501;1256;138992;-78
2023/06/12 11:47:03;;;;;;;10.40;2.40;;;;;;;26.28;27.04;100224.95;219278;1255;139412;-73
2023/06/12 11:52:11;;;;;;;4.00;2.40;;;;;;;26.41;26.93;100212.27;219942;1255;139773;-73
2023/06/12 11:57:18;;;;;;;3.40;2.30;;;;;;;26.01;26.51;100214.59;219564;1254;139893;-70
2023/06/12 12:02:29;;;;;;;11.10;2.30;;;;;;;25.78;26.85;100213.75;219388;1256;139762;-71
2023/06/12 12:07:38;;;;;;;6.60;2.60;;;;;;;25.90;27.00;100211.26;219272;1255;140537;-67
2023/06/12 12:12:52;;;;;;;4.30;2.30;;;;;;;26.02;26.68;100198.33;219226;1254;139668;-71
2023/06/12 12:18:02;;;;;;;3.70;2.00;;;;;;;26.03;26.66;100204.42;218516;1254;138949;-74
2023/06/12 12:23:12;;;;;;;2.30;1.80;;;;;;;26.07;26.27;100195.30;219260;1254;139912;-73
2023/06/12 12:28:17;;;;;;;5.40;1.90;;;;;;;25.82;26.43;100199.48;218558;1255;138989;-73
2023/06/12 12:33:21;;;;;;;3.70;2.30;;;;;;;25.73;26.69;100191.30;219373;1255;140030;-69
2023/06/12 12:38:25;;;;;;;9.50;2.30;;;;;;;25.71;26.26;100189.81;218652;1256;138810;-71
2023/06/12 12:43:31;;;;;;;5.40;2.70;;;;;;;25.57;26.18;100175.60;218223;1256;139212;-73
2023/06/12 12:48:38;;;;;;;2.00;1.90;;;;;;;25.39;26.07;100167.10;217853;1259;138897;-73
2023/06/12 12:53:43;;;;;;;2.30;1.60;;;;;;;25.00;25.98;100176.71;218185;1259;138876;-72
2023/06/12 12:58:50;;;;;;;3.10;2.00;;;;;;;24.95;25.95;100170.35;219874;1254;140269;-75
2023/06/12 13:03:55;;;;;;;5.90;1.50;;;;;;;24.94;26.14;100157.34;219296;1255;138974;-69
2023/06/12 13:09:01;;;;;;;1.90;1.70;;;;;;;24.96;25.86;100161.73;218128;1256;140220;-72
2023/06/12 13:14:04;;;;;;;2.70;2.30;;;;;;;24.96;25.78;100165.93;219473;1256;139737;-73
2023/06/12 13:19:08;;;;;;;2.40;2.10;;;;;;;24.84;25.49;100160.62;218509;1258;138626;-75
2023/06/12 13:24:12;;;;;;;2.20;2.00;;;;;;;24.92;25.50;100154.45;218142;1256;139252;-75
2023/06/12 13:29:24;;;;;;;2.20;1.70;;;;;;;24.86;25.16;100156.40;217898;1254;139499;-71
2023/06/12 13:34:29;;;;;;;4.80;1.70;;;;;;;24.84;24.76;100146.90;218002;1259;139308;-69
2023/06/12 13:39:36;;;;;;;4.20;2.20;;;;;;;24.85;24.86;100145.88;218800;1255;139721;-76
2023/06/12 13:44:41;;;;;;;4.40;1.50;;;;;;;24.93;25.02;100148.33;218937;1256;138927;-76
2023/06/12 13:49:52;;;;;;;1.90;1.60;;;;;;;24.89;25.17;100134.48;218487;1255;139510;-79
2023/06/12 13:54:56;;;;;;;3.00;2.00;;;;;;;24.88;25.40;100129.88;218810;1256;140307;-76
2023/06/12 14:00:01;;;;;;;3.60;1.50;;;;;;;24.92;25.47;100133.63;219806;1255;140677;-77
2023/06/12 14:05:06;;;;;;;2.60;1.90;;;;;;;24.82;25.06;100133.71;218403;1255;139390;-76
2023/06/12 14:10:13;;;;;;;2.70;1.50;;;;;;;24.81;25.01;100123.05;220743;1259;139835;-77
2023/06/12 14:15:22;;;;;;;2.20;1.70;;;;;;;24.83;25.08;100121.55;220647;1259;139701;-77
2023/06/12 14:20:26;;;;;;;1.70;1.60;;;;;;;24.86;25.62;100115.42;220927;1255;139313;-77
2023/06/12 14:31:44;;;;;;;4.60;2.10;;;;;;;25.00;25.50;100119.98;215227;1298;635273;-78
2023/06/12 14:36:49;;;;;;;2.70;1.70;;;;;;;24.85;25.52;100119.66;216585;1269;139304;-77
2023/06/12 14:41:53;;;;;;;2.90;1.80;;;;;;;24.68;25.39;100121.29;216276;1270;606502;-77
2023/06/12 14:46:59;;;;;;;2.70;2.00;;;;;;;24.56;25.46;100124.64;216763;1271;138449;-79
2023/06/12 14:52:08;;;;;;;2.30;1.80;;;;;;;24.47;25.50;100120.10;217630;1266;139445;-76
2023/06/12 14:57:34;;;;;;;2.30;2.20;;;;;;;24.43;25.86;100111.67;216654;1266;138446;-79
2023/06/12 15:02:41;;;;;;;2.40;2.00;;;;;;;24.46;25.63;100115.33;217700;1266;138950;-66
2023/06/12 15:07:47;;;;;;;3.00;2.20;;;;;;;24.43;25.73;100112.59;217484;1267;141755;-70
2023/06/12 15:12:55;;;;;;;4.30;2.20;;;;;;;24.27;25.76;100105.46;217396;1267;138470;-70
2023/06/12 15:18:13;;;;;;;6.60;1.90;;;;;;;24.24;25.77;100103.87;216596;1266;139761;-72
2023/06/12 15:23:36;;;;;;;8.60;2.40;;;;;;;24.18;25.72;100100.31;216274;1266;139115;-66
2023/06/12 15:28:42;;;;;;;2.20;1.80;;;;;;;24.21;26.04;100092.60;219665;1263;140922;-70
2023/06/12 15:33:50;;;;;;;6.40;2.70;;;;;;;24.22;25.86;100102.61;219763;1262;138559;-68
2023/06/12 15:38:55;;;;;;;2.40;2.20;;;;;;;24.13;25.99;100099.06;219585;1260;139093;-71
2023/06/12 15:43:59;;;;;;;3.70;2.10;;;;;;;24.08;25.92;100094.95;219766;1260;139368;-66
2023/06/12 15:49:05;;;;;;;8.40;2.60;;;;;;;24.02;25.94;100087.59;219695;1263;138790;-66
2023/06/12 15:54:12;;;;;;;7.70;2.00;;;;;;;23.92;26.10;100087.06;219542;1260;138829;-66
2023/06/12 15:59:27;;;;;;;1.90;1.80;;;;;;;23.83;25.99;100080.05;219716;1262;139627;-69
2023/06/12 16:04:40;;;;;;;3.10;2.50;;;;;;;23.61;26.24;100083.60;219555;1260;138592;-65
2023/06/12 16:09:53;;;;;;;3.80;2.40;;;;;;;23.57;26.78;100081.91;219296;1263;139045;-66
2023/06/12 16:15:07;;;;;;;3.60;2.30;;;;;;;23.57;26.55;100083.98;219760;1263;140003;-70
2023/06/12 16:20:13;;;;;;;3.00;2.20;;;;;;;23.56;26.72;100085.33;219705;1263;139298;-71
2023/06/12 16:25:18;;;;;;;6.60;2.30;;;;;;;23.55;27.01;100080.88;219774;1263;138939;-73
2023/06/12 16:30:23;;;;;;;10.30;2.80;;;;;;;23.53;26.68;100082.67;219929;1263;139239;-64
2023/06/12 16:35:29;;;;;;;6.20;2.40;;;;;;;23.48;26.55;100077.44;219920;1260;140016;-65
2023/06/12 16:40:39;;;;;;;9.20;2.60;;;;;;;23.33;26.72;100074.68;219806;1260;139420;-65
2023/06/12 16:45:51;;;;;;;3.10;2.00;;;;;;;23.08;26.51;100077.85;220138;1260;138824;-72
2023/06/12 16:51:05;;;;;;;3.90;2.40;;;;;;;23.03;26.78;100070.45;219774;1260;139702;-70
2023/06/12 16:56:15;;;;;;;4.30;2.20;;;;;;;23.02;26.96;100070.86;219964;1260;139474;-71
2023/06/12 17:01:33;;;;;;;5.40;2.70;;;;;;;23.03;27.35;100076.34;220419;1256;138671;-66
2023/06/12 17:06:39;;;;;;;5.30;2.40;;;;;;;22.98;27.52;100077.48;220058;1256;140084;-66
2023/06/12 17:11:49;;;;;;;2.30;2.10;;;;;;;22.86;27.64;100072.33;220146;1260;139705;-75
2023/06/12 17:17:11;;;;;;;2.50;2.30;;;;;;;22.70;27.75;100068.02;219966;1257;138894;-70
2023/06/12 17:22:29;;;;;;;2.70;2.50;;;;;;;22.54;27.83;100069.59;220131;1259;139455;-71
2023/06/12 17:27:53;;;;;;;4.90;2.40;;;;;;;22.42;27.83;100072.83;220095;1257;140758;-74
2023/06/12 17:33:15;;;;;;;3.90;2.30;;;;;;;22.28;28.16;100070.80;220351;1259;140460;-75
2023/06/12 17:38:37;;;;;;;3.90;3.10;;;;;;;22.10;28.19;100075.95;220125;1257;139871;-74
2023/06/12 17:43:55;;;;;;;2.90;2.40;;;;;;;21.97;28.42;100074.25;220331;1260;139411;-75
2023/06/12 17:48:59;;;;;;;3.20;2.30;;;;;;;21.82;28.55;100073.87;220199;1256;139019;-73
2023/06/12 17:54:04;;;;;;;3.20;2.70;;;;;;;21.60;30.13;100072.77;220310;1256;139538;-70
2023/06/12 17:59:15;;;;;;;2.50;2.30;;;;;;;21.32;31.11;100071.05;220235;1260;139221;-70
2023/06/12 18:04:23;;;;;;;11.00;2.90;;;;;;;21.10;32.00;100072.95;220126;1258;138841;-73
2023/06/12 18:09:31;;;;;;;3.70;1.90;;;;;;;20.87;32.84;100069.42;220340;1256;141089;-72
2023/06/12 18:14:35;;;;;;;5.40;3.10;;;;;;;20.61;33.80;100073.66;220248;1257;139893;-73
2023/06/12 18:19:42;;;;;;;9.80;3.00;;;;;;;20.35;34.79;100068.59;219745;1257;139004;-73
2023/06/12 18:24:57;;;;;;;3.70;2.50;;;;;;;20.11;35.21;100070.34;220315;1258;139198;-73
2023/06/12 18:30:02;;;;;;;3.50;2.50;;;;;;;19.82;35.80;100073.39;220258;1260;139795;-72
2023/06/12 18:35:08;;;;;;;3.90;2.70;;;;;;;19.51;36.37;100076.77;220287;1260;138773;-72
2023/06/12 18:40:17;;;;;;;4.40;3.00;;;;;;;19.24;36.99;100077.88;220147;1257;139524;-72
2023/06/12 18:45:24;;;;;;;5.60;2.70;;;;;;;19.00;37.61;100077.59;220156;1257;140036;-72
2023/06/12 18:50:29;;;;;;;7.50;2.60;;;;;;;18.76;38.00;100075.85;218966;1256;139115;-71
2023/06/12 18:55:37;;;;;;;12.20;4.00;;;;;;;18.54;38.64;100080.36;219466;1257;139636;-73
2023/06/12 19:00:41;;;;;;;6.80;3.00;;;;;;;18.29;39.05;100081.70;220099;1257;138826;-73
2023/06/12 19:05:48;;;;;;;4.20;3.20;;;;;;;18.07;39.58;100083.64;220102;1260;138909;-73
2023/06/12 19:10:52;;;;;;;11.50;3.30;;;;;;;17.83;39.90;100087.60;218732;1258;139674;-73
2023/06/12 19:15:56;;;;;;;9.30;3.40;;;;;;;17.56;40.50;100085.73;220095;1257;138920;-73
2023/06/12 19:21:01;;;;;;;13.30;3.30;;;;;;;17.28;40.67;100083.55;220203;1257;139816;-68
2023/06/12 19:26:11;;;;;;;12.10;3.50;;;;;;;16.95;41.32;100085.10;219890;1257;140244;-72
2023/06/12 19:31:18;;;;;;;5.30;3.60;;;;;;;16.70;42.35;100083.02;219157;1257;139434;-72
2023/06/12 19:36:30;;;;;;;7.10;4.00;;;;;;;16.47;43.12;100087.79;220375;1256;139469;-73
2023/06/12 19:42:04;;;;;;;6.90;3.10;;;;;;;16.23;43.57;100083.98;220293;1257;243265;-74
2023/06/12 19:47:14;;;;;;;9.90;3.20;;;;;;;15.95;44.18;100083.12;220390;1257;141405;-74
2023/06/12 19:52:20;;;;;;;4.30;3.00;;;;;;;15.61;44.75;100080.17;220547;1256;139409;-74
2023/06/12 19:57:30;;;;;;;10.10;3.60;;;;;;;15.27;45.51;100085.55;220461;1257;138782;-73
2023/06/12 20:02:38;;;;;;;9.60;4.30;;;;;;;15.04;46.04;100108.55;220652;1257;138619;-73
2023/06/12 20:07:43;;;;;;;6.80;3.10;;;;;;;14.88;45.64;100115.45;220579;1256;139193;-73
2023/06/12 20:12:48;;;;;;;3.00;2.70;;;;;;;14.94;45.69;100120.17;220311;1257;138966;-74
2023/06/12 20:17:52;;;;;;;7.60;3.50;;;;;;;15.03;45.78;100119.71;220245;1257;139216;-74
2023/06/12 20:23:02;;;;;;;6.70;3.40;;;;;;;15.07;45.73;100114.43;219610;1257;138764;-75
2023/06/12 20:28:08;;;;;;;7.50;2.80;;;;;;;15.06;45.99;100117.22;220418;1256;139488;-75
2023/06/12 20:33:18;;;;;;;3.80;2.60;;;;;;;15.02;46.14;100117.50;220260;1256;138523;-74
2023/06/12 20:38:24;;;;;;;6.30;3.40;;;;;;;14.99;46.70;100116.83;220396;1257;140174;-75
2023/06/12 20:43:29;;;;;;;3.80;2.00;;;;;;;14.92;46.90;100118.88;220285;1257;141699;-74
2023/06/12 20:48:36;;;;;;;1.70;1.60;;;;;;;14.86;47.34;100118.87;219222;1257;138818;-75
2023/06/12 20:53:41;;;;;;;3.00;2.10;;;;;;;14.79;47.58;100117.35;220136;1257;139551;-73
2023/06/12 20:58:46;;;;;;;8.60;2.60;;;;;;;14.72;47.79;100121.06;220060;1256;138944;-74
2023/06/12 21:03:52;;;;;;;2.90;2.60;;;;;;;14.66;48.14;100134.44;220323;1257;140523;-75
2023/06/12 21:08:58;;;;;;;2.50;2.30;;;;;;;14.57;48.43;100133.09;220068;1256;140023;-76
2023/06/12 21:14:05;;;;;;;4.30;3.00;;;;;;;14.48;48.64;100136.05;219516;1257;139060;-74
2023/06/12 21:19:12;;;;;;;3.80;2.80;;;;;;;14.35;48.97;100144.94;220307;1256;139542;-74
2023/06/12 21:24:18;;;;;;;6.80;2.80;;;;;;;14.27;49.07;100151.54;219507;1257;138984;-77
2023/06/12 21:29:27;;;;;;;2.70;2.20;;;;;;;14.23;49.35;100156.84;220495;1256;138732;-75
2023/06/12 21:34:32;;;;;;;4.60;2.10;;;;;;;14.09;49.23;100163.84;220535;1256;139010;-74
2023/06/12 21:39:37;;;;;;;4.10;1.90;;;;;;;14.00;49.42;100163.02;218656;1256;139985;-77
2023/06/12 21:44:43;;;;;;;2.00;1.70;;;;;;;13.90;49.45;100160.61;220016;1257;139001;-76
2023/06/12 21:49:48;;;;;;;3.60;1.70;;;;;;;13.85;49.57;100158.77;220326;1256;139284;-77
2023/06/12 21:54:53;;;;;;;1.70;1.60;;;;;;;13.80;49.54;100158.64;220560;1259;139298;-74
2023/06/12 21:59:58;;;;;;;1.70;1.60;;;;;;;13.71;49.55;100158.52;220235;1256;140347;-74
2023/06/12 22:05:02;;;;;;;2.10;1.40;;;;;;;13.55;49.68;100161.58;220589;1256;139322;-74
2023/06/12 22:10:07;;;;;;;2.10;1.50;;;;;;;13.43;49.93;100165.14;220446;1256;139405;-75
2023/06/12 22:15:12;;;;;;;1.90;1.60;;;;;;;13.35;50.26;100169.77;220297;1256;138366;-73
2023/06/12 22:20:20;;;;;;;1.80;1.60;;;;;;;13.24;50.43;100174.39;220318;1257;139119;-74
2023/06/12 22:25:25;;;;;;;3.10;1.50;;;;;;;13.08;50.27;100182.23;220607;1255;140200;-75
2023/06/12 22:30:31;;;;;;;2.00;1.10;;;;;;;13.00;50.53;100182.89;220477;1256;139232;-75
2023/06/12 22:35:47;;;;;;;1.50;1.10;;;;;;;12.91;50.73;100180.24;220435;1256;139358;-75
2023/06/12 22:40:52;;;;;;;1.00;1.00;;;;;;;12.78;50.88;100167.61;220415;1256;149206;-74
2023/06/12 22:45:57;;;;;;;3.00;2.10;;;;;;;12.68;50.84;100163.55;220534;1255;139537;-74
2023/06/12 22:51:03;;;;;;;1.80;1.70;;;;;;;12.59;51.01;100160.67;220323;1255;140141;-73
2023/06/12 22:56:08;;;;;;;1.40;1.30;;;;;;;12.48;51.27;100159.02;220577;1256;139050;-74
2023/06/12 23:01:13;;;;;;;1.50;1.40;;;;;;;12.40;51.49;100161.34;219868;1255;139568;-73
2023/06/12 23:06:18;;;;;;;1.60;1.50;;;;;;;12.35;51.58;100157.79;220556;1256;139344;-74
2023/06/12 23:11:24;;;;;;;1.40;1.30;;;;;;;12.29;51.79;100155.67;220425;1257;140264;-74
2023/06/12 23:16:28;;;;;;;2.00;0.90;;;;;;;12.27;52.05;100152.70;218989;1256;139664;-75
2023/06/12 23:21:37;;;;;;;1.40;1.10;;;;;;;12.27;52.25;100155.92;220332;1256;139324;-75